Pontypool, United Kingdom
Current Conditions -  °F | °C
As of 4:20 PM on Saturday 25 Oct 2014 (Local Time) from EGFF Reporting Station
Overcast Overcast  
Wind Chill: 55°   Ceiling: 2000
Heat Index: 55°   Visibility: 6mi
Dew Point: 50°   Wind: 15mph
Humidity: 82%   Direction: 260°W
Pressure: 30.06"   Gusts: NA
Location:  51.7°N, 3.03°W
Report Text: EGFF 251520Z AUTO 26013KT 9999 BKN020 OVC041 13/10 Q1018 RERA
Loading
Personal Weather Stations






























Interactive Weather Map
Tropical Storm Tracking
New forecast layout! Learn more

10-Day Weather Forecast

Advertisements
Track Severe Weather on mobile